createdAt,value
2023-04-18T00:01:44.546Z,2.30
2023-04-18T00:04:13.732Z,2.60
2023-04-18T00:06:40.778Z,2.20
2023-04-18T00:09:07.435Z,1.60
2023-04-18T00:11:34.947Z,2.28
2023-04-18T00:14:03.284Z,1.95
2023-04-18T00:16:30.016Z,1.73
2023-04-18T00:18:57.222Z,2.17
2023-04-18T00:21:25.470Z,1.92
2023-04-18T00:23:52.080Z,2.13
2023-04-18T00:26:18.682Z,1.58
2023-04-18T00:28:45.432Z,1.48
2023-04-18T00:31:12.019Z,1.42
2023-04-18T00:33:38.598Z,1.50
2023-04-18T00:36:05.708Z,2.03
2023-04-18T00:38:32.272Z,2.08
2023-04-18T00:40:58.877Z,2.30
2023-04-18T00:43:25.631Z,2.67
2023-04-18T00:45:52.453Z,2.00
2023-04-18T00:48:19.061Z,1.90
2023-04-18T00:50:46.004Z,2.85
2023-04-18T00:53:13.509Z,2.58
2023-04-18T00:55:41.263Z,2.63
2023-04-18T00:58:08.442Z,3.20
2023-04-18T01:00:35.507Z,2.25
2023-04-18T01:03:02.245Z,2.78
2023-04-18T01:05:29.124Z,2.42
2023-04-18T01:08:00.925Z,2.63
2023-04-18T01:10:29.070Z,2.53
2023-04-18T01:13:16.605Z,2.37
2023-04-18T01:15:44.975Z,2.25
2023-04-18T01:18:13.344Z,2.45
2023-04-18T01:20:43.811Z,2.22
2023-04-18T01:23:10.592Z,2.13
2023-04-18T01:25:37.417Z,2.83
2023-04-18T01:28:04.668Z,2.10
2023-04-18T01:30:31.273Z,2.60
2023-04-18T01:32:57.902Z,2.35
2023-04-18T01:35:24.539Z,1.70
2023-04-18T01:37:51.376Z,1.75
2023-04-18T01:40:18.126Z,1.85
2023-04-18T01:42:44.806Z,1.45
2023-04-18T01:45:12.888Z,2.15
2023-04-18T01:47:39.760Z,1.50
2023-04-18T01:50:06.912Z,1.55
2023-04-18T01:52:33.828Z,2.00
2023-04-18T01:55:02.183Z,2.00
2023-04-18T01:57:28.997Z,2.13
2023-04-18T01:59:55.579Z,1.58
2023-04-18T02:02:22.427Z,1.58
2023-04-18T02:04:49.134Z,1.65
2023-04-18T02:07:15.748Z,1.70
2023-04-18T02:09:42.372Z,1.40
2023-04-18T02:12:09.146Z,2.10
2023-04-18T02:14:36.421Z,1.50
2023-04-18T02:17:03.097Z,1.83
2023-04-18T02:19:30.382Z,1.75
2023-04-18T02:21:56.994Z,2.08
2023-04-18T02:24:23.605Z,1.52
2023-04-18T02:26:50.200Z,1.73
2023-04-18T02:29:17.030Z,1.80
2023-04-18T02:31:43.616Z,1.50
2023-04-18T02:34:10.296Z,1.38
2023-04-18T02:36:36.928Z,1.55
2023-04-18T02:39:03.656Z,1.73
2023-04-18T02:41:30.231Z,1.77
2023-04-18T02:43:57.052Z,1.63
2023-04-18T02:46:25.009Z,1.23
2023-04-18T02:48:51.662Z,1.67
2023-04-18T02:51:19.966Z,1.50
2023-04-18T02:53:46.818Z,1.40
2023-04-18T02:56:17.137Z,1.25
2023-04-18T02:58:43.735Z,1.40
2023-04-18T03:01:10.621Z,1.65
2023-04-18T03:03:37.267Z,0.98
2023-04-18T03:06:04.105Z,1.50
2023-04-18T03:08:30.745Z,1.27
2023-04-18T03:10:57.367Z,1.33
2023-04-18T03:13:25.163Z,1.85
2023-04-18T03:15:51.892Z,1.98
2023-04-18T03:18:18.442Z,1.35
2023-04-18T03:20:45.167Z,1.48
2023-04-18T03:23:11.747Z,1.70
2023-04-18T03:25:38.452Z,1.42
2023-04-18T03:28:05.210Z,1.20
2023-04-18T03:30:32.516Z,1.95
2023-04-18T03:32:59.660Z,1.77
2023-04-18T03:35:26.297Z,1.55
2023-04-18T03:37:52.863Z,1.40
2023-04-18T03:40:19.540Z,1.55
2023-04-18T03:42:46.101Z,1.88
2023-04-18T03:45:12.764Z,1.42
2023-04-18T03:47:39.410Z,1.30
2023-04-18T03:50:06.460Z,1.45
2023-04-18T03:52:33.258Z,1.38
2023-04-18T03:54:59.874Z,1.15
2023-04-18T03:57:26.528Z,1.60
2023-04-18T03:59:53.163Z,1.45
2023-04-18T04:02:19.978Z,1.83
2023-04-18T04:04:47.069Z,1.73
2023-04-18T04:07:13.845Z,1.33
2023-04-18T04:09:40.432Z,1.20
2023-04-18T04:12:07.010Z,1.40
2023-04-18T04:14:33.585Z,1.40
2023-04-18T04:17:00.233Z,1.30
2023-04-18T04:19:26.772Z,1.40
2023-04-18T04:21:53.456Z,1.40
2023-04-18T04:24:22.629Z,1.92
2023-04-18T04:26:50.726Z,1.52
2023-04-18T04:29:17.778Z,1.77
2023-04-18T04:31:44.592Z,1.50
2023-04-18T04:34:11.274Z,2.00
2023-04-18T04:36:38.006Z,1.70
2023-04-18T04:39:05.313Z,1.60
2023-04-18T04:41:31.898Z,1.35
2023-04-18T04:43:59.685Z,1.58
2023-04-18T04:46:29.402Z,1.60
2023-04-18T04:48:56.558Z,2.13
2023-04-18T04:51:23.308Z,1.52
2023-04-18T04:53:49.921Z,1.60
2023-04-18T04:56:16.590Z,1.52
2023-04-18T04:58:43.235Z,1.67
2023-04-18T05:01:09.863Z,2.15
2023-04-18T05:03:36.666Z,2.17
2023-04-18T05:06:03.654Z,2.33
2023-04-18T05:08:30.442Z,2.15
2023-04-18T05:10:57.050Z,1.83
2023-04-18T05:13:23.650Z,1.83
2023-04-18T05:15:50.313Z,1.70
2023-04-18T05:18:16.917Z,1.48
2023-04-18T05:20:43.505Z,1.83
2023-04-18T05:23:10.293Z,1.90
2023-04-18T05:25:37.010Z,2.03
2023-04-18T05:28:08.333Z,1.92
2023-04-18T05:30:34.916Z,1.88
2023-04-18T05:33:01.543Z,2.20
2023-04-18T05:35:28.230Z,2.10
2023-04-18T05:37:54.808Z,2.03
2023-04-18T05:40:21.429Z,1.98
2023-04-18T05:42:48.209Z,1.63
2023-04-18T05:45:14.850Z,1.98
2023-04-18T05:47:41.537Z,2.85
2023-04-18T05:50:08.844Z,2.75
2023-04-18T05:52:37.034Z,2.63
2023-04-18T05:55:03.725Z,2.22
2023-04-18T05:57:30.993Z,2.20
2023-04-18T05:59:57.689Z,2.22
2023-04-18T06:02:24.413Z,1.63
2023-04-18T06:04:51.717Z,2.50
2023-04-18T06:07:18.540Z,1.92
2023-04-18T06:09:45.759Z,2.95
2023-04-18T06:12:12.353Z,1.50
2023-04-18T06:14:38.986Z,2.25
2023-04-18T06:17:07.267Z,2.00
2023-04-18T06:19:33.832Z,2.05
2023-04-18T06:22:01.387Z,1.83
2023-04-18T06:24:29.615Z,2.27
2023-04-18T06:26:57.561Z,2.47
2023-04-18T06:29:24.643Z,2.72
2023-04-18T06:31:52.137Z,2.67
2023-04-18T06:34:18.832Z,2.42
2023-04-18T06:36:45.544Z,2.47
2023-04-18T06:39:12.570Z,2.47
2023-04-18T06:41:39.132Z,2.60
2023-04-18T06:44:05.777Z,2.75
2023-04-18T06:46:33.139Z,2.60
2023-04-18T06:49:00.122Z,2.60
2023-04-18T06:51:27.449Z,2.90
2023-04-18T06:53:57.029Z,3.97
2023-04-18T06:56:23.689Z,2.58
2023-04-18T06:58:53.218Z,2.67
2023-04-18T07:01:20.122Z,2.70
2023-04-18T07:03:46.752Z,2.60
2023-04-18T07:06:13.459Z,2.70
2023-04-18T07:08:40.038Z,3.90
2023-04-18T07:11:06.856Z,3.03
2023-04-18T07:13:33.548Z,2.67
2023-04-18T07:16:01.366Z,2.92
2023-04-18T07:18:37.360Z,4.78
2023-04-18T07:21:07.838Z,3.43
2023-04-18T07:23:35.008Z,2.80
2023-04-18T07:26:02.889Z,3.47
2023-04-18T07:30:57.061Z,3.38
2023-04-18T07:33:24.735Z,2.97
2023-04-18T07:35:52.819Z,3.70
2023-04-18T07:38:19.460Z,3.10
2023-04-18T07:40:46.059Z,3.80
2023-04-18T07:43:12.610Z,3.83
2023-04-18T07:45:39.301Z,3.97
2023-04-18T07:48:06.516Z,3.47
2023-04-18T07:50:33.108Z,3.53
2023-04-18T07:52:59.695Z,2.95
2023-04-18T07:55:26.311Z,3.20
2023-04-18T07:57:52.895Z,3.30
2023-04-18T08:00:19.746Z,3.50
2023-04-18T08:02:46.495Z,3.03
2023-04-18T08:05:13.489Z,3.83
2023-04-18T08:07:40.638Z,3.47
2023-04-18T08:10:07.707Z,4.23
2023-04-18T08:12:36.269Z,3.13
2023-04-18T08:15:03.714Z,3.20
2023-04-18T08:17:31.130Z,4.15
2023-04-18T08:19:57.823Z,4.07
2023-04-18T08:22:24.473Z,3.72
2023-04-18T08:25:03.821Z,3.92
2023-04-18T08:27:31.483Z,4.53
2023-04-18T08:29:58.317Z,3.78
2023-04-18T08:32:24.954Z,3.80
2023-04-18T08:34:51.581Z,3.83
2023-04-18T08:37:18.293Z,2.92
2023-04-18T08:39:45.114Z,4.05
2023-04-18T08:42:16.393Z,3.88
2023-04-18T08:44:43.329Z,3.97
2023-04-18T08:47:09.984Z,4.05
2023-04-18T08:49:36.590Z,4.20
2023-04-18T08:52:10.130Z,3.22
2023-04-18T08:54:38.678Z,3.88
2023-04-18T08:57:06.792Z,3.65
2023-04-18T08:59:35.614Z,3.38
2023-04-18T09:02:04.334Z,4.00
2023-04-18T09:04:45.399Z,4.60
2023-04-18T09:07:13.965Z,3.03
2023-04-18T09:09:51.696Z,3.40
2023-04-18T09:12:23.110Z,2.85
2023-04-18T09:14:51.583Z,3.47
2023-04-18T09:17:34.542Z,3.95
2023-04-18T09:20:06.240Z,3.13
2023-04-18T09:22:53.202Z,3.35
2023-04-18T09:25:39.743Z,3.85
2023-04-18T09:28:33.526Z,3.53
2023-04-18T09:31:15.448Z,3.50
2023-04-18T09:33:54.114Z,3.70
2023-04-18T09:36:27.428Z,2.70
2023-04-18T09:38:56.868Z,2.72
2023-04-18T09:41:24.318Z,2.85
2023-04-18T09:44:09.710Z,3.20
2023-04-18T09:46:38.278Z,2.38
2023-04-18T09:49:04.879Z,2.42
2023-04-18T09:51:33.343Z,2.47
2023-04-18T09:54:00.684Z,2.65
2023-04-18T09:56:29.705Z,2.97
2023-04-18T09:59:03.114Z,3.53
2023-04-18T10:01:29.859Z,2.72
2023-04-18T10:03:57.634Z,2.40
2023-04-18T10:06:27.452Z,2.90
2023-04-18T10:08:54.678Z,3.10
2023-04-18T10:11:22.057Z,2.60
2023-04-18T10:13:50.525Z,3.17
2023-04-18T10:16:18.248Z,3.55
2023-04-18T10:18:44.932Z,3.65
2023-04-18T10:21:11.604Z,3.65
2023-04-18T10:23:39.698Z,3.47
2023-04-18T10:26:10.741Z,3.38
2023-04-18T10:28:57.333Z,3.80
2023-04-18T10:31:28.542Z,3.97
2023-04-18T10:36:28.317Z,3.83
2023-04-18T10:39:20.049Z,4.00
2023-04-18T10:41:51.009Z,4.53
2023-04-18T10:44:23.006Z,3.45
2023-04-18T10:46:53.135Z,4.10
2023-04-18T10:49:26.410Z,4.05
2023-04-18T10:51:56.206Z,4.53
2023-04-18T10:54:28.940Z,4.45
2023-04-18T10:56:57.734Z,3.58
2023-04-18T10:59:26.700Z,4.45
2023-04-18T11:02:01.321Z,3.75
2023-04-18T11:04:28.507Z,3.60
2023-04-18T11:06:57.491Z,3.83
2023-04-18T11:09:24.583Z,4.13
2023-04-18T11:12:04.685Z,3.78
2023-04-18T11:14:44.944Z,3.72
2023-04-18T11:17:18.867Z,3.97
2023-04-18T11:19:46.123Z,3.40
2023-04-18T11:22:13.785Z,4.40
2023-04-18T11:24:40.468Z,3.70
2023-04-18T11:27:09.987Z,3.80
2023-04-18T11:29:36.974Z,3.67
2023-04-18T11:32:07.618Z,4.03
2023-04-18T11:34:35.641Z,3.80
2023-04-18T11:37:07.596Z,3.50
2023-04-18T11:39:43.770Z,3.30
2023-04-18T11:42:10.585Z,2.58
2023-04-18T11:44:39.852Z,3.13
2023-04-18T11:47:31.682Z,2.47
2023-04-18T11:50:03.917Z,2.58
2023-04-18T11:52:32.324Z,2.53
2023-04-18T11:57:52.125Z,1.93
2023-04-18T12:00:22.000Z,2.15
2023-04-18T12:02:51.266Z,2.30
2023-04-18T12:05:36.997Z,1.52
2023-04-18T12:08:11.861Z,1.90
2023-04-18T12:10:46.310Z,2.00
2023-04-18T12:13:13.216Z,2.28
2023-04-18T12:15:42.306Z,2.60
2023-04-18T12:18:10.807Z,2.28
2023-04-18T12:23:05.988Z,1.95
2023-04-18T12:25:32.881Z,2.20
2023-04-18T12:28:04.671Z,2.05
2023-04-18T12:30:36.031Z,2.55
2023-04-18T12:33:04.905Z,3.03
2023-04-18T12:35:32.436Z,1.95
2023-04-18T12:38:00.730Z,2.33
2023-04-18T12:40:30.071Z,2.78
2023-04-18T12:42:56.686Z,1.95
2023-04-18T12:45:23.774Z,1.88
2023-04-18T12:47:52.190Z,2.42
2023-04-18T12:52:48.614Z,2.00
2023-04-18T12:55:15.798Z,1.67
2023-04-18T12:57:43.371Z,1.50
2023-04-18T13:00:11.296Z,1.75
2023-04-18T13:02:39.766Z,1.65
2023-04-18T13:05:10.933Z,1.90
2023-04-18T13:07:40.497Z,2.72
2023-04-18T13:10:12.009Z,1.80
2023-04-18T13:12:41.724Z,1.80
2023-04-18T13:15:09.767Z,2.10
2023-04-18T13:17:37.704Z,1.98
2023-04-18T13:20:10.696Z,1.75
2023-04-18T13:22:38.166Z,2.20
2023-04-18T13:25:05.829Z,1.90
2023-04-18T13:27:32.491Z,1.90
2023-04-18T13:29:59.245Z,2.20
2023-04-18T13:32:26.483Z,2.10
2023-04-18T13:34:53.223Z,2.88
2023-04-18T13:37:19.882Z,2.33
2023-04-18T13:39:46.599Z,2.22
2023-04-18T13:42:15.941Z,2.40
2023-04-18T13:44:42.896Z,2.90
2023-04-18T13:47:09.552Z,2.30
2023-04-18T13:49:36.527Z,2.20
2023-04-18T13:52:03.495Z,2.17
2023-04-18T13:54:31.962Z,2.70
2023-04-18T13:57:04.098Z,2.78
2023-04-18T13:59:31.910Z,2.90
2023-04-18T14:01:59.062Z,2.75
2023-04-18T14:04:27.039Z,1.67
2023-04-18T14:06:53.794Z,1.50
2023-04-18T14:09:20.539Z,1.90
2023-04-18T14:11:47.298Z,1.60
2023-04-18T14:14:14.079Z,2.13
2023-04-18T14:16:40.766Z,2.13
2023-04-18T14:19:07.644Z,2.35
2023-04-18T14:21:34.274Z,2.40
2023-04-18T14:24:00.934Z,2.33
2023-04-18T14:26:29.368Z,1.58
2023-04-18T14:28:56.542Z,1.92
2023-04-18T14:31:23.264Z,1.73
2023-04-18T14:33:49.916Z,2.10
2023-04-18T14:36:17.416Z,1.60
2023-04-18T14:38:48.486Z,1.55
2023-04-18T14:41:15.315Z,2.13
2023-04-18T14:43:41.942Z,2.53
2023-04-18T14:46:13.201Z,1.83
2023-04-18T14:48:39.973Z,1.67
2023-04-18T14:51:07.104Z,1.60
2023-04-18T14:53:34.121Z,1.90
2023-04-18T14:56:00.697Z,2.00
2023-04-18T14:58:27.283Z,2.08
2023-04-18T15:00:53.916Z,2.22
2023-04-18T15:03:20.802Z,2.78
2023-04-18T15:05:49.025Z,2.28
2023-04-18T15:08:16.301Z,1.80
2023-04-18T15:10:43.313Z,1.77
2023-04-18T15:13:11.142Z,2.03
2023-04-18T15:15:39.699Z,1.88
2023-04-18T15:20:34.489Z,3.22
2023-04-18T15:23:01.728Z,2.78
2023-04-18T15:25:30.356Z,2.30
2023-04-18T15:27:58.260Z,1.60
2023-04-18T15:30:25.245Z,2.42
2023-04-18T15:32:52.234Z,2.83
2023-04-18T15:35:18.954Z,1.85
2023-04-18T15:37:45.748Z,2.20
2023-04-18T15:40:16.199Z,2.42
2023-04-18T15:42:43.741Z,2.70
2023-04-18T15:45:11.152Z,1.98
2023-04-18T15:47:38.851Z,2.00
2023-04-18T15:50:06.222Z,2.28
2023-04-18T15:52:32.912Z,2.20
2023-04-18T15:55:00.415Z,2.20
2023-04-18T15:57:29.300Z,2.13
2023-04-18T15:59:56.712Z,3.85
2023-04-18T16:02:23.338Z,4.85
2023-04-18T16:04:50.201Z,3.92
2023-04-18T16:07:16.926Z,4.00
2023-04-18T16:09:43.582Z,3.45
2023-04-18T16:12:10.252Z,4.18
2023-04-18T16:14:36.911Z,3.20
2023-04-18T16:17:03.748Z,2.63
2023-04-18T16:19:30.497Z,2.88
2023-04-18T16:21:57.529Z,3.25
2023-04-18T16:24:25.709Z,3.40
2023-04-18T16:26:53.652Z,2.40
2023-04-18T16:29:20.425Z,3.00
2023-04-18T16:31:47.838Z,3.50
2023-04-18T16:34:15.829Z,2.28
2023-04-18T16:36:42.791Z,2.63
2023-04-18T16:39:09.472Z,4.03
2023-04-18T16:41:36.118Z,4.38
2023-04-18T16:44:02.712Z,2.80
2023-04-18T16:46:32.279Z,2.33
2023-04-18T16:48:59.255Z,2.53
2023-04-18T16:51:26.468Z,2.30
2023-04-18T16:53:53.105Z,2.38
2023-04-18T16:56:19.685Z,2.38
2023-04-18T16:58:47.517Z,2.20
2023-04-18T17:01:14.225Z,2.55
2023-04-18T17:03:41.092Z,3.03
2023-04-18T17:06:07.784Z,2.08
2023-04-18T17:08:34.485Z,2.20
2023-04-18T17:11:02.309Z,2.42
2023-04-18T17:13:31.438Z,2.38
2023-04-18T17:15:58.213Z,2.30
2023-04-18T17:18:25.117Z,2.08
2023-04-18T17:20:52.518Z,2.35
2023-04-18T17:23:19.283Z,2.33
2023-04-18T17:25:46.297Z,1.92
2023-04-18T17:28:13.865Z,2.65
2023-04-18T17:30:44.260Z,2.25
2023-04-18T17:33:11.161Z,2.25
2023-04-18T17:35:41.401Z,2.05
2023-04-18T17:38:08.559Z,2.58
2023-04-18T17:40:35.334Z,2.63
2023-04-18T17:43:01.928Z,2.95
2023-04-18T17:45:28.512Z,2.85
2023-04-18T17:47:57.504Z,2.40
2023-04-18T17:50:24.198Z,3.03
2023-04-18T17:52:50.775Z,3.03
2023-04-18T17:55:17.376Z,3.38
2023-04-18T17:57:43.932Z,3.22
2023-04-18T18:00:11.970Z,2.90
2023-04-18T18:02:38.835Z,3.47
2023-04-18T18:05:06.085Z,2.78
2023-04-18T18:07:37.112Z,2.72
2023-04-18T18:10:04.940Z,2.83
2023-04-18T18:12:32.312Z,3.47
2023-04-18T18:14:59.108Z,2.92
2023-04-18T18:17:25.874Z,3.45
2023-04-18T18:19:52.557Z,2.75
2023-04-18T18:22:21.274Z,2.80
2023-04-18T18:27:14.771Z,3.45
2023-04-18T18:29:41.390Z,2.90
2023-04-18T18:32:08.111Z,3.85
2023-04-18T18:34:34.854Z,3.60
2023-04-18T18:37:01.517Z,3.85
2023-04-18T18:39:28.114Z,3.72
2023-04-18T18:41:54.771Z,3.85
2023-04-18T18:44:21.483Z,4.25
2023-04-18T18:46:48.106Z,3.80
2023-04-18T18:49:15.037Z,5.38
2023-04-18T18:51:41.740Z,4.32
2023-04-18T18:54:08.393Z,3.35
2023-04-18T18:56:34.981Z,4.25
2023-04-18T18:59:01.609Z,3.42
2023-04-18T19:01:30.222Z,3.38
2023-04-18T19:03:56.985Z,3.58
2023-04-18T19:06:23.684Z,3.80
2023-04-18T19:08:50.331Z,3.80
2023-04-18T19:11:18.299Z,3.38
2023-04-18T19:13:45.152Z,3.40
2023-04-18T19:16:12.950Z,3.30
2023-04-18T19:18:53.055Z,4.20
2023-04-18T19:21:20.407Z,5.22
2023-04-18T19:23:47.047Z,4.50
2023-04-18T19:26:13.901Z,4.95
2023-04-18T19:29:06.109Z,5.32
2023-04-18T19:31:53.890Z,6.30
2023-04-18T19:34:22.288Z,5.03
2023-04-18T19:36:49.213Z,4.65
2023-04-18T19:39:16.581Z,3.67
2023-04-18T19:41:43.257Z,3.10
2023-04-18T19:44:09.853Z,3.83
2023-04-18T19:46:39.474Z,2.90
2023-04-18T19:49:06.279Z,3.53
2023-04-18T19:51:32.851Z,3.75
2023-04-18T19:53:59.587Z,2.95
2023-04-18T19:56:26.475Z,2.88
2023-04-18T19:58:53.326Z,2.42
2023-04-18T20:01:20.936Z,2.83
2023-04-18T20:03:48.194Z,2.78
2023-04-18T20:06:16.180Z,2.55
2023-04-18T20:08:43.188Z,3.03
2023-04-18T20:11:10.908Z,2.60
2023-04-18T20:13:38.295Z,2.50
2023-04-18T20:16:08.347Z,2.45
2023-04-18T20:18:39.439Z,2.95
2023-04-18T20:21:08.067Z,3.15
2023-04-18T20:23:35.551Z,2.63
2023-04-18T20:26:03.101Z,2.63
2023-04-18T20:28:31.255Z,3.17
2023-04-18T20:30:57.914Z,3.05
2023-04-18T20:33:24.569Z,3.17
2023-04-18T20:35:51.159Z,3.13
2023-04-18T20:38:17.750Z,3.10
2023-04-18T20:40:44.957Z,3.30
2023-04-18T20:43:13.585Z,2.95
2023-04-18T20:45:42.827Z,7.45
2023-04-18T20:48:09.778Z,2.97
2023-04-18T20:50:36.366Z,3.20
2023-04-18T20:53:04.010Z,2.97
2023-04-18T20:55:30.993Z,2.75
2023-04-18T20:57:58.667Z,3.28
2023-04-18T21:00:25.543Z,3.22
2023-04-18T21:02:52.288Z,3.10
2023-04-18T21:05:18.974Z,2.60
2023-04-18T21:07:45.927Z,3.08
2023-04-18T21:10:12.663Z,3.78
2023-04-18T21:12:39.317Z,3.10
2023-04-18T21:15:06.382Z,2.72
2023-04-18T21:17:32.995Z,2.28
2023-04-18T21:19:59.614Z,2.38
2023-04-18T21:22:26.296Z,2.25
2023-04-18T21:24:52.896Z,3.03
2023-04-18T21:27:19.530Z,3.30
2023-04-18T21:29:46.120Z,2.92
2023-04-18T21:32:12.789Z,2.92
2023-04-18T21:34:40.904Z,2.28
2023-04-18T21:37:07.558Z,2.47
2023-04-18T21:39:34.222Z,2.60
2023-04-18T21:42:01.865Z,2.33
2023-04-18T21:44:28.498Z,2.65
2023-04-18T21:46:56.585Z,2.53
2023-04-18T21:49:28.461Z,2.60
2023-04-18T21:51:56.690Z,2.97
2023-04-18T21:54:23.993Z,2.75
2023-04-18T21:56:50.583Z,2.70
2023-04-18T21:59:18.466Z,2.60
2023-04-18T22:01:45.399Z,2.63
2023-04-18T22:04:15.164Z,2.30
2023-04-18T22:06:43.876Z,2.78
2023-04-18T22:09:11.797Z,2.72
2023-04-18T22:11:38.430Z,3.50
2023-04-18T22:14:05.181Z,2.10
2023-04-18T22:16:33.403Z,2.65
2023-04-18T22:19:01.188Z,2.92
2023-04-18T22:21:27.874Z,2.35
2023-04-18T22:23:54.437Z,2.40
2023-04-18T22:26:21.041Z,2.45
2023-04-18T22:28:48.126Z,2.40
2023-04-18T22:31:14.820Z,2.28
2023-04-18T22:33:41.460Z,2.40
2023-04-18T22:36:08.256Z,2.53
2023-04-18T22:38:34.837Z,2.30
2023-04-18T22:41:01.391Z,1.88
2023-04-18T22:43:28.249Z,1.95
2023-04-18T22:45:54.977Z,2.15
2023-04-18T22:48:21.769Z,2.10
2023-04-18T22:50:49.901Z,2.50
2023-04-18T22:53:16.880Z,2.13
2023-04-18T22:55:44.583Z,2.00
2023-04-18T22:58:11.675Z,2.03
2023-04-18T23:00:38.296Z,2.10
2023-04-18T23:03:05.234Z,1.60
2023-04-18T23:05:32.145Z,2.05
2023-04-18T23:08:00.325Z,2.10
2023-04-18T23:10:27.416Z,2.45
2023-04-18T23:12:54.041Z,2.05
2023-04-18T23:15:22.798Z,1.60
2023-04-18T23:20:17.960Z,1.98
2023-04-18T23:22:44.556Z,1.88
2023-04-18T23:25:11.123Z,1.88
2023-04-18T23:27:37.778Z,1.80
2023-04-18T23:30:04.816Z,2.30
2023-04-18T23:32:31.451Z,1.60
2023-04-18T23:34:58.239Z,1.60
2023-04-18T23:37:24.848Z,1.45
2023-04-18T23:39:51.651Z,1.30
2023-04-18T23:42:18.273Z,1.90
2023-04-18T23:44:45.119Z,1.77
2023-04-18T23:47:11.825Z,2.22
2023-04-18T23:49:38.509Z,2.55
2023-04-18T23:52:05.241Z,2.20
2023-04-18T23:54:31.803Z,2.10
2023-04-18T23:56:58.508Z,2.08
2023-04-18T23:59:25.112Z,1.77
